Time;durP1;ratioP1;P1;durP2;ratioP2;P2;SDS_P1;SDS_P2;PMS_P1;PMS_P2;Temp;Humidity;BMP_temperature;BMP_pressure;BME280_temperature;BME280_humidity;BME280_pressure;Samples;Min_cycle;Max_cycle;Signal;HPM_P1;HPM_P2
2022/01/06 00:01:03;;;;;;;;;4.75;4.75;;;;;21.27;33.20;101419.44;5056207;28;45270;-61
2022/01/06 00:03:28;;;;;;;;;5.00;4.50;;;;;21.27;33.19;101416.78;5056498;28;45469;-61
2022/01/06 00:05:55;;;;;;;;;6.00;5.00;;;;;21.25;32.83;101410.75;5056635;28;45482;-61
2022/01/06 00:08:21;;;;;;;;;5.75;4.50;;;;;21.25;33.19;101415.19;5037935;28;46218;-60
2022/01/06 00:10:48;;;;;;;;;7.50;5.00;;;;;21.24;32.78;101406.41;5056324;28;45407;-60
2022/01/06 00:13:17;;;;;;;;;5.25;5.25;;;;;21.23;32.77;101406.47;5055433;28;45498;-61
2022/01/06 00:25:59;;;;;;;;;6.50;4.75;;;;;21.16;32.53;101409.44;5056456;28;45364;-61
2022/01/06 00:28:25;;;;;;;;;7.50;5.00;;;;;21.16;32.61;101408.56;5056002;28;46393;-61
2022/01/06 00:30:50;;;;;;;;;7.00;5.50;;;;;21.13;32.70;101412.22;5038112;28;45672;-61
2022/01/06 00:33:17;;;;;;;;;7.00;5.75;;;;;21.13;32.90;101421.88;5038025;28;45419;-60
2022/01/06 00:35:42;;;;;;;;;4.25;4.25;;;;;21.13;32.88;101427.16;5056600;28;45592;-60
2022/01/06 00:38:08;;;;;;;;;6.00;6.00;;;;;21.09;32.71;101429.09;5055756;28;46458;-60
2022/01/06 00:40:35;;;;;;;;;5.75;4.00;;;;;21.11;32.63;101439.56;5058716;28;45166;-60
2022/01/06 00:43:03;;;;;;;;;6.00;5.25;;;;;21.10;33.10;101436.06;5059642;28;45973;-59
2022/01/06 00:45:28;;;;;;;;;6.00;6.00;;;;;21.07;32.46;101438.00;5059688;28;45523;-59
2022/01/06 00:47:54;;;;;;;;;6.00;5.25;;;;;21.08;32.64;101442.34;5059166;28;45469;-60
2022/01/06 00:50:19;;;;;;;;;6.50;6.50;;;;;21.07;32.65;101438.84;5059262;28;45312;-60
2022/01/06 00:52:44;;;;;;;;;7.75;6.75;;;;;21.05;32.97;101435.47;5041485;28;45480;-59
2022/01/06 00:55:10;;;;;;;;;8.25;5.25;;;;;21.03;33.04;101434.66;5059642;28;45475;-60
2022/01/06 00:57:35;;;;;;;;;5.75;5.00;;;;;21.02;32.52;101430.31;5059025;28;46303;-60
2022/01/06 01:00:00;;;;;;;;;6.00;6.00;;;;;21.02;33.06;101440.88;5040935;28;45193;-60
2022/01/06 01:02:26;;;;;;;;;6.00;6.00;;;;;21.01;32.79;101445.25;5059067;28;45289;-60
2022/01/06 01:04:51;;;;;;;;;6.75;6.50;;;;;21.00;32.74;101445.34;5059583;28;45414;-60
2022/01/06 01:07:16;;;;;;;;;7.25;6.00;;;;;20.98;32.74;101450.72;5040967;28;45814;-60
2022/01/06 01:09:42;;;;;;;;;7.25;7.25;;;;;20.96;33.17;101446.41;5059227;28;45543;-61
2022/01/06 01:12:07;;;;;;;;;6.75;5.50;;;;;20.96;32.90;101444.66;5058985;28;45481;-60
2022/01/06 01:14:45;;;;;;;;;6.50;6.25;;;;;20.95;32.67;101435.03;5059225;28;45225;-61
2022/01/06 01:17:15;;;;;;;;;7.00;7.00;;;;;20.94;33.22;101435.94;5058808;28;45512;-60
2022/01/06 01:19:40;;;;;;;;;3.50;3.50;;;;;20.93;32.81;101439.50;5058871;28;45876;-61
2022/01/06 01:22:07;;;;;;;;;5.25;5.25;;;;;20.88;32.71;101431.00;5058912;28;45412;-61
2022/01/06 01:24:32;;;;;;;;;10.50;8.00;;;;;20.88;33.15;101436.25;5059007;28;45650;-61
2022/01/06 01:26:58;;;;;;;;;6.00;5.50;;;;;20.88;33.23;101432.75;5058481;28;47122;-60
2022/01/06 01:29:23;;;;;;;;;8.75;8.75;;;;;20.85;33.32;101442.50;5058740;28;45265;-60
2022/01/06 01:31:52;;;;;;;;;7.00;6.00;;;;;20.85;32.96;101442.50;5058804;28;45246;-60
2022/01/06 01:34:24;;;;;;;;;6.25;6.00;;;;;20.85;32.86;101447.78;5059058;28;45422;-60
2022/01/06 01:36:52;;;;;;;;;9.00;7.25;;;;;20.84;32.94;101445.22;5058610;28;46308;-60
2022/01/06 01:39:18;;;;;;;;;10.50;8.00;;;;;20.82;33.27;101441.81;5058724;28;45489;-61
2022/01/06 01:41:43;;;;;;;;;8.75;6.00;;;;;20.81;32.87;101442.72;5040728;28;45326;-61
2022/01/06 01:44:13;;;;;;;;;7.75;7.00;;;;;20.79;33.17;101441.94;5058729;28;45554;-61
2022/01/06 01:46:47;;;;;;;;;5.75;5.75;;;;;20.77;33.05;101449.09;5057649;28;45275;-61
2022/01/06 01:49:31;;;;;;;;;9.00;7.75;;;;;20.78;32.74;101456.06;5058354;28;45496;-61
2022/01/06 01:51:57;;;;;;;;;7.75;6.00;;;;;20.74;32.63;101454.44;5058249;28;45365;-61
2022/01/06 01:54:23;;;;;;;;;7.25;5.75;;;;;20.73;33.15;101452.75;5058484;28;45167;-61
2022/01/06 01:56:48;;;;;;;;;6.50;5.50;;;;;20.74;32.85;101459.72;5058377;28;46179;-61
2022/01/06 01:59:14;;;;;;;;;5.00;5.00;;;;;20.74;33.23;101454.44;5058001;28;45281;-61
2022/01/06 02:01:42;;;;;;;;;6.00;6.00;;;;;20.77;33.48;101471.00;5058368;28;45245;-61
2022/01/06 02:04:07;;;;;;;;;7.25;6.25;;;;;20.79;33.09;101469.16;5058328;28;45514;-60
2022/01/06 02:06:33;;;;;;;;;6.50;6.50;;;;;20.84;33.36;101472.41;5057939;28;46276;-60
2022/01/06 02:08:59;;;;;;;;;5.75;5.50;;;;;20.89;33.39;101466.94;5057792;28;45402;-60
2022/01/06 02:11:24;;;;;;;;;8.50;6.00;;;;;20.95;33.17;101471.06;5058252;28;45251;-61
2022/01/06 02:13:55;;;;;;;;;9.00;9.00;;;;;20.99;33.35;101468.22;5058463;28;45479;-60
2022/01/06 02:16:23;;;;;;;;;12.00;7.25;;;;;21.06;33.35;101473.19;5057913;28;46392;-60
2022/01/06 02:18:50;;;;;;;;;8.25;8.00;;;;;21.09;33.52;101473.91;5058055;28;45367;-62
2022/01/06 02:21:15;;;;;;;;;7.75;6.75;;;;;21.13;33.20;101475.47;5058325;28;45494;-61
2022/01/06 02:23:41;;;;;;;;;10.00;6.25;;;;;21.14;32.66;101469.28;5058278;28;45689;-63
2022/01/06 02:26:07;;;;;;;;;9.75;7.00;;;;;21.17;32.80;101463.84;5057687;28;45497;-61
2022/01/06 02:28:32;;;;;;;;;6.00;6.00;;;;;21.23;33.14;101467.13;5057382;28;45438;-61
2022/01/06 02:30:58;;;;;;;;;5.00;5.00;;;;;21.27;33.38;101460.78;5057946;28;45307;-60
2022/01/06 02:33:24;;;;;;;;;8.25;7.25;;;;;21.29;33.15;101472.94;5057932;28;45617;-61
2022/01/06 02:35:50;;;;;;;;;8.00;6.00;;;;;21.33;33.23;101478.09;5039800;28;48595;-60
2022/01/06 02:38:16;;;;;;;;;6.50;6.25;;;;;21.34;32.87;101480.63;5057784;28;45747;-62
2022/01/06 02:40:43;;;;;;;;;6.00;5.50;;;;;21.33;32.75;101475.44;5057805;28;45390;-61
2022/01/06 02:43:08;;;;;;;;;7.00;6.00;;;;;21.37;33.18;101479.63;5057982;28;45532;-61
2022/01/06 02:45:36;;;;;;;;;6.50;6.50;;;;;21.38;32.93;101476.06;5057450;28;46269;-60
2022/01/06 02:48:08;;;;;;;;;8.50;5.25;;;;;21.39;32.85;101456.66;5057437;28;45355;-63
2022/01/06 02:50:39;;;;;;;;;6.00;5.75;;;;;21.39;32.76;101461.94;5039513;28;45268;-60
2022/01/06 02:53:09;;;;;;;;;6.00;5.00;;;;;21.40;33.21;101461.84;5057875;28;45308;-59
2022/01/06 02:55:36;;;;;;;;;7.00;6.25;;;;;21.41;32.65;101465.38;5057416;28;45429;-60
2022/01/06 02:58:02;;;;;;;;;6.25;5.75;;;;;21.41;33.07;101475.91;5057351;28;45359;-60
2022/01/06 03:00:27;;;;;;;;;7.00;6.00;;;;;21.40;33.22;101474.19;5057285;28;45345;-60
2022/01/06 03:02:53;;;;;;;;;8.00;7.00;;;;;21.39;32.82;101483.88;5056758;28;45386;-58
2022/01/06 03:05:19;;;;;;;;;6.00;6.00;;;;;21.36;32.85;101483.19;5057596;28;46695;-59
2022/01/06 03:07:45;;;;;;;;;8.25;7.00;;;;;21.37;32.79;101485.75;5056978;28;45477;-61
2022/01/06 03:10:14;;;;;;;;;7.00;5.00;;;;;21.37;33.03;101498.94;5057300;28;45490;-60
2022/01/06 03:12:40;;;;;;;;;7.50;7.50;;;;;21.36;32.91;101493.72;5057472;28;45518;-60
2022/01/06 03:15:10;;;;;;;;;6.00;6.00;;;;;21.34;32.88;101496.44;5056877;28;46247;-60
2022/01/06 03:17:37;;;;;;;;;8.75;6.00;;;;;21.35;32.72;101503.44;5057106;28;45883;-60
2022/01/06 03:20:05;;;;;;;;;7.25;7.00;;;;;21.33;32.84;101499.19;5057131;28;45406;-60
2022/01/06 03:22:30;;;;;;;;;5.50;5.00;;;;;21.33;32.99;101507.09;5039154;28;45457;-60
2022/01/06 03:24:55;;;;;;;;;7.25;5.25;;;;;21.33;33.14;101522.91;5056945;28;45362;-61
2022/01/06 03:27:21;;;;;;;;;7.75;7.75;;;;;21.31;32.92;101513.28;5057009;28;45177;-60
2022/01/06 03:29:49;;;;;;;;;5.00;5.00;;;;;21.28;32.94;101508.16;5057152;28;45195;-60
2022/01/06 03:32:15;;;;;;;;;6.00;5.00;;;;;21.28;32.79;101517.81;5057005;28;45248;-60
2022/01/06 03:34:41;;;;;;;;;5.75;5.75;;;;;21.27;32.90;101516.97;5056691;28;46441;-62
2022/01/06 03:37:06;;;;;;;;;6.25;5.00;;;;;21.26;32.44;101510.00;5038608;28;45458;-60
2022/01/06 03:39:32;;;;;;;;;6.00;4.25;;;;;21.25;32.61;101507.44;5056764;28;45381;-59
2022/01/06 03:41:58;;;;;;;;;5.75;5.75;;;;;21.25;32.84;101512.72;5055616;28;45538;-60
2022/01/06 03:44:24;;;;;;;;;5.25;5.25;;;;;21.23;32.83;101512.78;5056633;28;47397;-60
2022/01/06 03:46:50;;;;;;;;;7.50;6.25;;;;;21.23;32.68;101510.13;5056867;28;45313;-59
2022/01/06 03:49:15;;;;;;;;;4.75;4.75;;;;;21.21;32.90;101517.28;5056777;28;45453;-60
2022/01/06 03:51:40;;;;;;;;;9.50;5.50;;;;;21.21;32.65;101505.88;5056804;28;45233;-61
2022/01/06 03:54:06;;;;;;;;;5.25;5.00;;;;;21.21;32.67;101511.16;5056384;28;45474;-61
2022/01/06 03:56:31;;;;;;;;;8.75;8.25;;;;;21.21;33.05;101509.38;5056488;28;45246;-61
2022/01/06 03:58:57;;;;;;;;;7.00;6.75;;;;;21.20;32.39;101518.22;5056580;28;45308;-61
2022/01/06 04:01:22;;;;;;;;;10.00;8.25;;;;;21.19;32.54;101519.13;5056938;28;45656;-61
2022/01/06 04:03:47;;;;;;;;;8.00;6.25;;;;;21.19;32.57;101518.25;5038308;28;46531;-60
2022/01/06 04:06:16;;;;;;;;;5.00;5.00;;;;;21.19;32.83;101519.13;5038286;28;45256;-59
2022/01/06 04:08:41;;;;;;;;;5.50;5.50;;;;;21.19;32.29;101521.78;5056321;28;45414;-61
2022/01/06 04:11:07;;;;;;;;;6.00;6.00;;;;;21.16;32.48;101520.16;5056533;28;45320;-61
2022/01/06 04:13:33;;;;;;;;;8.50;8.00;;;;;21.18;32.51;101520.06;5039328;28;46890;-60
2022/01/06 04:16:01;;;;;;;;;6.25;6.25;;;;;21.17;32.35;101518.34;5059873;28;45469;-59
2022/01/06 04:18:27;;;;;;;;;8.00;6.50;;;;;21.17;32.81;101526.25;5059771;28;45225;-61
2022/01/06 04:20:53;;;;;;;;;10.25;7.75;;;;;21.13;32.22;101517.66;5060348;28;45500;-61
2022/01/06 04:23:18;;;;;;;;;7.75;7.00;;;;;21.14;32.43;101522.00;5059776;28;45378;-60
2022/01/06 04:25:43;;;;;;;;;6.25;6.25;;;;;21.15;32.36;101517.56;5059849;28;45515;-61
2022/01/06 04:28:08;;;;;;;;;7.00;7.00;;;;;21.10;32.46;101514.31;5059951;28;45287;-61
2022/01/06 04:30:34;;;;;;;;;7.50;7.00;;;;;21.07;32.68;101514.44;5060169;28;45621;-61
2022/01/06 04:32:59;;;;;;;;;6.00;6.00;;;;;21.07;32.78;101514.44;5059621;28;45832;-61
2022/01/06 04:35:25;;;;;;;;;6.00;6.00;;;;;21.07;33.07;101524.97;5060131;28;45234;-60
2022/01/06 04:37:50;;;;;;;;;4.00;4.00;;;;;21.06;32.50;101523.28;5060007;28;45545;-61
2022/01/06 04:40:16;;;;;;;;;8.00;8.00;;;;;21.00;32.86;101514.72;5059782;28;45360;-62
2022/01/06 04:42:41;;;;;;;;;6.00;5.75;;;;;21.01;33.07;101519.06;5041482;28;47067;-61
2022/01/06 04:45:07;;;;;;;;;6.75;6.50;;;;;20.99;32.47;101523.56;5059524;28;45316;-62
2022/01/06 04:47:33;;;;;;;;;5.50;5.50;;;;;20.98;32.85;101528.88;5059604;28;45484;-62
2022/01/06 04:49:58;;;;;;;;;6.75;6.25;;;;;20.97;32.46;101525.41;5059729;28;45539;-62
2022/01/06 04:52:23;;;;;;;;;8.00;6.00;;;;;20.95;32.94;101516.72;5059636;28;45381;-60
2022/01/06 04:54:49;;;;;;;;;6.00;6.00;;;;;20.94;32.95;101512.38;5059030;28;49384;-60
2022/01/06 04:57:14;;;;;;;;;5.00;5.00;;;;;20.93;32.72;101510.66;5041160;28;45387;-61
2022/01/06 04:59:39;;;;;;;;;6.00;6.00;;;;;20.87;33.16;101513.59;5059471;28;45516;-61
2022/01/06 05:02:05;;;;;;;;;6.25;5.00;;;;;20.89;32.66;101532.78;5059063;28;46202;-60
2022/01/06 05:04:31;;;;;;;;;7.00;5.50;;;;;20.87;32.66;101536.44;5059015;28;45365;-60
2022/01/06 05:06:56;;;;;;;;;7.00;6.00;;;;;20.84;33.04;101537.44;5059516;28;45344;-60
2022/01/06 05:09:22;;;;;;;;;6.00;5.00;;;;;20.81;32.53;101537.56;5059280;28;45559;-61
2022/01/06 05:11:47;;;;;;;;;6.25;6.00;;;;;20.80;32.60;101538.50;5058824;28;46568;-61
2022/01/06 05:14:12;;;;;;;;;6.25;6.25;;;;;20.79;32.46;101537.66;5058938;28;45388;-61
2022/01/06 05:16:38;;;;;;;;;4.25;3.25;;;;;20.78;33.07;101545.63;5059082;28;45344;-60
2022/01/06 05:19:03;;;;;;;;;10.00;7.25;;;;;20.76;32.87;101547.47;5059253;28;45315;-61
2022/01/06 05:21:31;;;;;;;;;5.00;4.75;;;;;20.74;33.19;101544.00;5058937;28;49705;-61
2022/01/06 05:23:57;;;;;;;;;7.25;6.50;;;;;20.75;32.71;101551.03;5059020;28;45463;-61
2022/01/06 05:26:22;;;;;;;;;8.25;6.00;;;;;20.72;32.89;101543.22;5058147;28;45466;-61
2022/01/06 05:28:48;;;;;;;;;8.50;6.50;;;;;20.69;33.07;101547.69;5059051;28;45461;-62
2022/01/06 05:31:13;;;;;;;;;6.25;6.25;;;;;20.69;33.11;101552.13;5058583;28;46261;-62
2022/01/06 05:33:38;;;;;;;;;7.00;7.00;;;;;20.68;32.66;101548.63;5058684;28;45284;-59
2022/01/06 05:36:04;;;;;;;;;5.00;4.50;;;;;20.66;33.06;101552.25;5058777;28;45403;-60
2022/01/06 05:38:29;;;;;;;;;8.50;7.00;;;;;20.65;32.98;101550.53;5041111;28;45355;-60
2022/01/06 05:40:55;;;;;;;;;6.50;6.25;;;;;20.64;33.28;101560.25;5058463;28;46763;-61
2022/01/06 05:43:21;;;;;;;;;10.50;6.50;;;;;20.60;33.24;101553.38;5058616;28;45257;-62
2022/01/06 05:45:48;;;;;;;;;7.25;6.00;;;;;20.64;33.17;101556.72;5058563;28;45441;-62
2022/01/06 05:48:14;;;;;;;;;6.00;5.75;;;;;20.63;32.67;101558.53;5058716;28;45344;-61
2022/01/06 05:50:39;;;;;;;;;7.00;5.50;;;;;20.61;33.08;101554.25;5058388;28;46307;-61
2022/01/06 05:53:05;;;;;;;;;4.75;4.75;;;;;20.59;33.17;101564.84;5058361;28;45369;-61
2022/01/06 05:55:30;;;;;;;;;7.00;5.75;;;;;20.60;32.88;101563.91;5058855;28;45314;-62
2022/01/06 05:57:55;;;;;;;;;6.75;5.00;;;;;20.62;33.31;101566.47;5058743;28;45629;-62
2022/01/06 06:00:21;;;;;;;;;6.00;5.00;;;;;20.59;33.14;101556.94;5058259;28;46137;-61
2022/01/06 06:02:46;;;;;;;;;5.00;5.00;;;;;20.59;33.19;101562.19;5058086;28;45341;-61
2022/01/06 06:05:12;;;;;;;;;4.50;4.00;;;;;20.59;33.04;101567.47;5058360;28;45310;-62
2022/01/06 06:07:37;;;;;;;;;5.25;5.25;;;;;20.58;33.19;101562.28;5058155;28;45466;-61
2022/01/06 06:10:03;;;;;;;;;9.00;6.50;;;;;20.57;33.04;101571.94;5057773;28;53023;-62
2022/01/06 06:12:28;;;;;;;;;4.50;4.00;;;;;20.55;33.13;101589.63;5058404;28;45297;-61
2022/01/06 06:14:54;;;;;;;;;4.00;4.00;;;;;20.50;32.81;101584.56;5058155;28;45351;-61
2022/01/06 06:17:19;;;;;;;;;8.75;7.75;;;;;20.54;33.30;101585.28;5058251;28;45253;-62
2022/01/06 06:19:44;;;;;;;;;6.50;5.00;;;;;20.54;33.04;101588.75;5057751;28;45311;-61
2022/01/06 06:22:12;;;;;;;;;5.00;5.00;;;;;20.53;33.39;101594.09;5039640;28;45367;-61
2022/01/06 06:24:38;;;;;;;;;4.50;4.50;;;;;20.51;33.33;101593.28;5057944;28;45505;-62
2022/01/06 06:27:05;;;;;;;;;7.00;6.25;;;;;20.51;33.32;101590.66;5040004;28;45260;-61
2022/01/06 06:29:30;;;;;;;;;6.25;5.00;;;;;20.51;33.14;101595.94;5058061;28;47037;-61
2022/01/06 06:31:56;;;;;;;;;8.50;6.00;;;;;20.51;33.47;101603.81;5057568;28;45380;-61
2022/01/06 06:34:21;;;;;;;;;6.75;5.25;;;;;20.50;32.72;101604.75;5057802;28;45447;-61
2022/01/06 06:36:47;;;;;;;;;7.00;6.00;;;;;20.49;32.82;101606.53;5038626;28;45395;-62
2022/01/06 06:39:12;;;;;;;;;8.75;7.00;;;;;20.48;32.63;101611.84;5057480;28;45375;-62
2022/01/06 06:41:38;;;;;;;;;8.00;8.00;;;;;20.44;32.81;101605.88;5057648;28;45497;-62
2022/01/06 06:44:03;;;;;;;;;7.25;7.25;;;;;20.42;32.89;101609.50;5057871;28;45910;-61
2022/01/06 06:46:29;;;;;;;;;5.00;5.00;;;;;20.39;32.73;101619.22;5058037;28;45223;-62
2022/01/06 06:48:54;;;;;;;;;10.25;7.50;;;;;20.35;32.91;101612.38;5056107;28;46256;-61
2022/01/06 06:51:20;;;;;;;;;10.00;8.00;;;;;20.31;32.27;101610.81;5057421;28;45354;-61
2022/01/06 06:53:45;;;;;;;;;8.50;8.00;;;;;20.28;32.54;101610.94;5057489;28;45395;-61
2022/01/06 06:56:10;;;;;;;;;9.00;9.00;;;;;20.23;32.14;101610.25;5057774;28;45296;-62
2022/01/06 06:58:36;;;;;;;;;9.50;9.00;;;;;20.20;32.33;101607.75;5057221;28;45346;-62
2022/01/06 07:01:01;;;;;;;;;8.25;8.00;;;;;20.17;32.34;101613.16;5039362;28;46396;-61
2022/01/06 07:03:27;;;;;;;;;6.75;6.75;;;;;20.13;31.98;101616.81;5057451;28;45498;-61
2022/01/06 07:05:52;;;;;;;;;8.50;8.50;;;;;20.07;31.98;101616.16;5057446;28;45463;-61
2022/01/06 07:08:18;;;;;;;;;8.75;6.75;;;;;20.07;31.88;101620.56;5056849;28;45473;-61
2022/01/06 07:10:43;;;;;;;;;8.75;8.00;;;;;20.04;32.15;101624.19;5057248;28;45416;-61
2022/01/06 07:13:09;;;;;;;;;5.25;5.25;;;;;20.03;32.43;101627.72;5057167;28;45384;-61
2022/01/06 07:15:37;;;;;;;;;7.50;7.50;;;;;19.99;32.07;101623.53;5057644;28;45262;-61
2022/01/06 07:18:02;;;;;;;;;10.50;7.00;;;;;19.98;32.22;101628.81;5057198;28;46304;-61
2022/01/06 07:20:28;;;;;;;;;7.25;6.50;;;;;19.95;32.15;101621.91;5057051;28;45469;-61
2022/01/06 07:22:53;;;;;;;;;9.25;7.25;;;;;19.94;32.25;101628.09;5056966;28;45315;-61
2022/01/06 07:25:18;;;;;;;;;7.00;7.00;;;;;19.91;31.88;101626.47;5057276;28;45625;-61
2022/01/06 07:27:44;;;;;;;;;10.25;7.25;;;;;19.89;31.92;101630.06;5056847;28;45419;-61
2022/01/06 07:30:10;;;;;;;;;11.50;8.50;;;;;19.86;32.26;101624.94;5056887;28;45447;-61
2022/01/06 07:32:47;;;;;;;;;8.00;7.00;;;;;19.86;31.73;101624.94;5057271;28;45313;-61
2022/01/06 07:35:14;;;;;;;;;11.00;9.75;;;;;19.81;31.76;101622.44;5057097;28;45518;-60
2022/01/06 07:37:39;;;;;;;;;10.25;6.25;;;;;19.80;32.11;101633.88;5056633;28;46710;-60
2022/01/06 07:40:07;;;;;;;;;8.25;7.00;;;;;19.80;32.08;101636.50;5056924;28;45248;-61
2022/01/06 07:42:32;;;;;;;;;8.75;8.25;;;;;19.76;32.00;101637.53;5057185;28;45366;-61
2022/01/06 07:45:00;;;;;;;;;7.00;7.00;;;;;19.75;32.06;101631.44;5055761;28;45473;-61
2022/01/06 07:47:25;;;;;;;;;7.50;7.00;;;;;19.72;31.49;101642.06;5056420;28;47287;-61
2022/01/06 07:49:51;;;;;;;;;7.00;7.00;;;;;19.70;31.75;101636.00;5056124;28;45244;-60
2022/01/06 07:52:16;;;;;;;;;9.25;8.25;;;;;19.70;32.00;101646.53;5056646;28;45237;-59
2022/01/06 07:54:42;;;;;;;;;10.25;8.50;;;;;19.68;32.14;101648.34;5056847;28;45347;-61
2022/01/06 07:57:08;;;;;;;;;9.75;8.50;;;;;19.68;31.93;101658.03;5056451;28;45733;-59
2022/01/06 07:59:33;;;;;;;;;8.50;7.50;;;;;19.62;32.03;101641.56;5038827;28;45864;-59
2022/01/06 08:01:59;;;;;;;;;10.25;8.25;;;;;19.63;32.09;101652.97;5056541;28;45170;-66
2022/01/06 08:04:24;;;;;;;;;8.75;8.75;;;;;19.63;32.02;101655.59;5056729;28;45223;-64
2022/01/06 08:06:49;;;;;;;;;8.00;8.00;;;;;19.62;31.73;101645.97;5056244;28;45463;-63
2022/01/06 08:09:15;;;;;;;;;9.50;8.50;;;;;19.61;32.03;101646.88;5056139;28;45919;-64
2022/01/06 08:11:41;;;;;;;;;9.00;7.50;;;;;19.58;31.93;101647.00;5056423;28;45395;-62
2022/01/06 08:14:07;;;;;;;;;9.00;8.25;;;;;19.55;31.64;101645.34;5056900;28;45511;-63
2022/01/06 08:16:32;;;;;;;;;10.25;9.50;;;;;19.53;31.87;101648.97;5056292;28;46663;-62
2022/01/06 08:18:58;;;;;;;;;10.50;8.25;;;;;19.52;31.70;101649.88;5056310;28;45494;-61
2022/01/06 08:21:23;;;;;;;;;11.25;9.00;;;;;19.47;31.64;101643.00;5056397;28;45883;-61
2022/01/06 08:23:48;;;;;;;;;12.00;9.00;;;;;19.47;31.59;101647.44;5056479;28;45506;-60
2022/01/06 08:26:14;;;;;;;;;9.00;8.00;;;;;19.45;31.70;101658.00;5056082;28;45429;-61
2022/01/06 08:28:39;;;;;;;;;13.00;8.25;;;;;19.42;31.67;101651.97;5056195;28;45412;-60
2022/01/06 08:31:04;;;;;;;;;9.50;9.00;;;;;19.42;31.63;101662.50;5056558;28;45392;-61
2022/01/06 08:33:30;;;;;;;;;12.00;8.00;;;;;19.38;31.98;101656.50;5056254;28;45512;-60
2022/01/06 08:35:55;;;;;;;;;7.00;7.00;;;;;19.40;31.95;101662.56;5055868;28;46536;-61
2022/01/06 08:38:21;;;;;;;;;9.25;8.25;;;;;19.40;31.68;101667.81;5055920;28;45403;-61
2022/01/06 08:40:46;;;;;;;;;8.00;8.00;;;;;19.40;31.51;101664.34;5056130;28;45293;-61
2022/01/06 08:43:12;;;;;;;;;7.75;6.75;;;;;19.39;31.98;101660.84;5056234;28;45326;-61
2022/01/06 08:45:38;;;;;;;;;7.50;7.50;;;;;19.41;31.86;101668.66;5056227;28;45394;-61
2022/01/06 08:48:04;;;;;;;;;11.25;9.75;;;;;19.43;32.04;101665.09;5055933;28;45179;-60
2022/01/06 08:50:29;;;;;;;;;7.00;7.00;;;;;19.45;31.90;101670.28;5054940;28;45485;-61
2022/01/06 08:52:55;;;;;;;;;7.50;7.50;;;;;19.48;32.42;101672.81;5056084;28;45423;-58
2022/01/06 08:55:22;;;;;;;;;9.50;9.50;;;;;19.50;32.56;101675.38;5055713;28;46605;-61
2022/01/06 08:57:47;;;;;;;;;10.00;10.00;;;;;19.55;32.02;101678.69;5055797;28;45289;-61
2022/01/06 09:00:13;;;;;;;;;9.25;9.25;;;;;19.55;32.25;101679.53;5056521;28;45262;-60
2022/01/06 09:02:39;;;;;;;;;7.00;6.75;;;;;19.57;32.33;101674.22;5059890;28;45563;-61
2022/01/06 09:05:09;;;;;;;;;11.00;8.00;;;;;19.59;32.32;101672.38;5059532;28;46503;-61
2022/01/06 09:07:36;;;;;;;;;10.25;7.25;;;;;19.56;32.15;101669.91;5059055;28;45804;-62
2022/01/06 09:10:02;;;;;;;;;7.25;7.00;;;;;19.62;32.39;101675.75;5059440;28;45387;-61
2022/01/06 09:12:28;;;;;;;;;7.00;7.00;;;;;19.61;32.45;101679.31;5059176;28;45308;-61
2022/01/06 09:14:53;;;;;;;;;9.25;9.00;;;;;19.62;31.97;101677.53;5058800;28;46289;-61
2022/01/06 09:17:19;;;;;;;;;6.50;6.50;;;;;19.60;32.26;101677.59;5058950;28;45305;-61
2022/01/06 09:19:44;;;;;;;;;7.50;7.50;;;;;19.60;32.51;101676.72;5058704;28;45656;-62
2022/01/06 09:22:09;;;;;;;;;10.00;9.00;;;;;19.61;32.15;101683.72;5059327;28;45351;-61
2022/01/06 09:24:35;;;;;;;;;8.00;7.00;;;;;19.60;32.36;101676.72;5058910;28;46226;-59
2022/01/06 09:27:01;;;;;;;;;8.75;8.25;;;;;19.59;32.59;101681.16;5058841;28;45401;-58
2022/01/06 09:29:26;;;;;;;;;10.00;8.75;;;;;19.58;32.28;101686.44;5058805;28;45396;-59
2022/01/06 09:31:52;;;;;;;;;9.75;9.00;;;;;19.56;32.45;101680.41;5059001;28;45348;-58
2022/01/06 09:34:17;;;;;;;;;9.00;7.75;;;;;19.56;32.51;101686.50;5058627;28;45423;-60
2022/01/06 09:36:43;;;;;;;;;10.25;7.25;;;;;19.55;32.44;101689.22;5058734;28;45392;-59
2022/01/06 09:39:10;;;;;;;;;10.25;7.25;;;;;19.56;32.25;101690.94;5040887;28;45734;-57
2022/01/06 09:41:36;;;;;;;;;8.25;6.25;;;;;19.55;32.96;101694.47;5058959;28;45495;-60
2022/01/06 09:44:02;;;;;;;;;7.00;7.00;;;;;19.57;32.41;101695.25;5058628;28;46332;-59
2022/01/06 09:46:28;;;;;;;;;8.50;7.00;;;;;19.57;32.45;101697.88;5058484;28;45451;-59
2022/01/06 09:48:59;;;;;;;;;9.25;8.00;;;;;19.59;32.92;101703.94;5058635;28;45320;-60
2022/01/06 09:51:29;;;;;;;;;6.50;6.50;;;;;19.59;32.57;101701.31;5058973;28;45396;-60
2022/01/06 09:54:00;;;;;;;;;8.00;6.50;;;;;19.60;32.52;101708.28;5058277;28;46895;-60
2022/01/06 09:56:27;;;;;;;;;9.00;7.25;;;;;19.60;32.39;101709.16;5058542;28;45240;-59
2022/01/06 09:58:53;;;;;;;;;10.50;7.25;;;;;19.59;32.52;101706.56;5058500;28;45383;-61
2022/01/06 10:01:20;;;;;;;;;10.00;7.00;;;;;19.60;32.53;101710.91;5058477;28;45340;-60
2022/01/06 10:03:48;;;;;;;;;6.00;6.00;;;;;19.62;32.56;101709.94;5058170;28;45433;-63
2022/01/06 10:06:18;;;;;;;;;6.25;6.25;;;;;19.63;32.78;101708.19;5058148;28;45443;-57
2022/01/06 10:08:50;;;;;;;;;6.00;6.00;;;;;19.62;32.52;101709.94;5058204;28;45324;-57
2022/01/06 10:11:19;;;;;;;;;7.75;6.00;;;;;19.62;32.78;101712.56;5058204;28;45274;-56
2022/01/06 10:13:54;;;;;;;;;6.75;6.75;;;;;19.62;32.44;101714.34;5057792;28;46447;-59
2022/01/06 10:16:20;;;;;;;;;5.25;5.00;;;;;19.62;32.70;101712.56;5057848;28;45417;-59
2022/01/06 10:18:53;;;;;;;;;5.75;5.75;;;;;19.62;32.41;101712.56;5058086;28;45326;-60
2022/01/06 10:21:18;;;;;;;;;6.25;6.25;;;;;19.63;32.61;101713.44;5058230;28;45356;-59
2022/01/06 10:23:43;;;;;;;;;8.00;6.00;;;;;19.62;32.70;101714.34;5039727;28;47925;-60
2022/01/06 10:26:13;;;;;;;;;9.50;7.50;;;;;19.60;32.51;101708.28;5058104;28;45355;-60
2022/01/06 10:28:39;;;;;;;;;7.00;6.50;;;;;19.62;32.68;101712.56;5058185;28;45352;-59
2022/01/06 10:31:08;;;;;;;;;5.50;5.50;;;;;19.63;32.79;101714.28;5058072;28;45285;-60
2022/01/06 10:33:41;;;;;;;;;9.00;6.25;;;;;19.63;32.49;101714.28;5057586;28;47318;-59
2022/01/06 10:36:08;;;;;;;;;5.00;5.00;;;;;19.66;32.54;101712.47;5057861;28;45356;-60
2022/01/06 10:38:34;;;;;;;;;8.00;6.75;;;;;19.64;32.67;101709.91;5057691;28;45427;-59
2022/01/06 10:41:13;;;;;;;;;11.50;7.50;;;;;19.63;32.59;101713.44;5057830;28;45419;-61
2022/01/06 10:43:39;;;;;;;;;6.00;6.00;;;;;19.61;32.38;101718.78;5057796;28;45760;-60
2022/01/06 10:46:05;;;;;;;;;9.25;8.75;;;;;19.60;32.77;101713.53;5057522;28;45455;-61
2022/01/06 10:48:31;;;;;;;;;9.00;7.00;;;;;19.57;32.81;101703.13;5039514;28;45510;-60
2022/01/06 10:50:59;;;;;;;;;12.00;6.25;;;;;19.56;32.35;101696.19;5057759;28;45528;-60
2022/01/06 10:53:24;;;;;;;;;6.00;6.00;;;;;19.54;32.23;101700.63;5057610;28;46689;-60
2022/01/06 10:55:50;;;;;;;;;7.25;7.00;;;;;19.53;32.73;101697.13;5057481;28;45334;-58
2022/01/06 10:58:19;;;;;;;;;6.75;5.00;;;;;19.54;32.76;101698.00;5057593;28;45351;-60
2022/01/06 11:00:55;;;;;;;;;6.50;6.50;;;;;19.54;32.89;101693.59;5057498;28;45225;-58
2022/01/06 11:03:25;;;;;;;;;6.75;4.50;;;;;19.51;32.44;101684.97;5057223;28;46138;-58
2022/01/06 11:05:58;;;;;;;;;8.00;6.00;;;;;19.54;32.50;101684.88;5057256;28;45435;-62
2022/01/06 11:08:27;;;;;;;;;4.00;4.00;;;;;19.54;32.73;101677.81;5057336;28;45435;-60
2022/01/06 11:13:49;;;;;;;;;7.00;5.00;;;;;19.55;32.93;101674.28;5057174;28;45227;-60
2022/01/06 11:16:20;;;;;;;;;7.25;5.50;;;;;19.56;32.98;101664.63;5057512;28;46016;-60
2022/01/06 11:18:51;;;;;;;;;7.00;7.00;;;;;19.56;32.84;101662.00;5057725;28;45386;-60
2022/01/06 11:21:22;;;;;;;;;5.25;4.25;;;;;19.56;32.98;101668.09;5057324;28;45530;-61
2022/01/06 11:23:48;;;;;;;;;7.00;5.50;;;;;19.56;32.58;101665.47;5056357;28;45643;-61
2022/01/06 11:26:21;;;;;;;;;7.50;4.00;;;;;19.57;32.54;101666.31;5057386;28;45438;-61
2022/01/06 11:28:55;;;;;;;;;5.50;4.00;;;;;19.55;32.72;101669.03;5057104;28;45458;-60
2022/01/06 11:31:23;;;;;;;;;7.50;6.00;;;;;19.57;32.44;101674.22;5057122;28;45499;-60
2022/01/06 11:33:51;;;;;;;;;4.50;4.50;;;;;19.56;33.45;101672.53;5056680;28;45438;-61